Time;durP1;ratioP1;P1;durP2;ratioP2;P2;SDS_P1;SDS_P2;PMS_P1;PMS_P2;Temp;Humidity;BMP_temperature;BMP_pressure;BME280_temperature;BME280_humidity;BME280_pressure;Samples;Min_cycle;Max_cycle;Signal;HPM_P1;HPM_P2
2022/11/18 00:01:17;;;;;;;17.37;9.07;;;;;;;;;;6180015;28;20169;-73
2022/11/18 00:04:18;;;;;;;15.60;8.73;;;;;;;;;;6196583;28;20080;-73
2022/11/18 00:07:18;;;;;;;14.32;8.65;;;;;;;;;;6196278;28;20043;-73
2022/11/18 00:10:18;;;;;;;16.53;8.20;;;;;;;;;;6195824;28;20045;-73
2022/11/18 00:16:38;;;;;;;17.05;7.75;;;;;;;;;;6195990;28;20034;-73
2022/11/18 00:19:38;;;;;;;15.90;8.98;;;;;;;;;;6195678;28;20038;-73
2022/11/18 00:22:39;;;;;;;17.17;9.30;;;;;;;;;;6179072;28;20029;-73
2022/11/18 00:25:39;;;;;;;14.82;8.25;;;;;;;;;;6196894;28;20455;-73
2022/11/18 00:28:39;;;;;;;17.23;8.65;;;;;;;;;;6196565;28;20018;-73
2022/11/18 00:31:39;;;;;;;17.37;8.53;;;;;;;;;;6178813;28;20053;-73
2022/11/18 00:34:41;;;;;;;19.73;9.63;;;;;;;;;;6196396;28;20463;-73
2022/11/18 00:37:41;;;;;;;16.40;8.00;;;;;;;;;;6178560;28;20426;-72
2022/11/18 00:40:41;;;;;;;14.93;8.60;;;;;;;;;;6196296;28;20077;-72
2022/11/18 00:43:41;;;;;;;16.90;9.97;;;;;;;;;;6196089;28;20050;-72
2022/11/18 00:46:42;;;;;;;14.97;7.63;;;;;;;;;;6195126;28;20081;-72
2022/11/18 00:49:42;;;;;;;17.43;9.03;;;;;;;;;;6195849;28;20105;-72
2022/11/18 00:52:42;;;;;;;18.45;9.07;;;;;;;;;;6196407;28;20168;-72
2022/11/18 00:55:43;;;;;;;15.03;7.97;;;;;;;;;;6194982;28;20151;-72
2022/11/18 00:58:43;;;;;;;13.37;7.33;;;;;;;;;;6196583;28;20022;-72
2022/11/18 01:01:43;;;;;;;17.30;8.20;;;;;;;;;;6194735;28;20030;-72
2022/11/18 01:04:43;;;;;;;17.58;7.97;;;;;;;;;;6195779;28;20030;-72
2022/11/18 01:07:44;;;;;;;16.70;7.80;;;;;;;;;;6194868;28;20050;-72
2022/11/18 01:10:46;;;;;;;13.33;7.73;;;;;;;;;;6195555;28;20265;-71
2022/11/18 01:13:49;;;;;;;15.82;8.60;;;;;;;;;;6195418;28;20445;-72
2022/11/18 01:16:52;;;;;;;13.68;7.70;;;;;;;;;;6177338;28;20467;-72
2022/11/18 01:19:52;;;;;;;16.67;8.95;;;;;;;;;;6195447;28;20033;-72
2022/11/18 01:22:53;;;;;;;15.90;8.50;;;;;;;;;;6194752;28;20030;-72
2022/11/18 01:25:53;;;;;;;16.73;8.40;;;;;;;;;;6195839;28;20018;-73
2022/11/18 01:28:54;;;;;;;15.03;7.43;;;;;;;;;;6195090;28;20058;-72
2022/11/18 01:31:54;;;;;;;14.80;7.63;;;;;;;;;;6199666;28;20057;-72
2022/11/18 01:34:54;;;;;;;15.73;7.73;;;;;;;;;;6199070;28;20018;-73
2022/11/18 01:37:55;;;;;;;12.80;7.40;;;;;;;;;;6198444;28;20145;-73
2022/11/18 01:40:55;;;;;;;13.82;6.57;;;;;;;;;;6200192;28;20057;-74
2022/11/18 01:43:56;;;;;;;14.87;7.80;;;;;;;;;;6199976;28;20400;-71
2022/11/18 01:46:57;;;;;;;12.65;7.68;;;;;;;;;;6192662;28;20034;-73
2022/11/18 01:49:58;;;;;;;15.00;8.02;;;;;;;;;;6180503;28;20072;-72
2022/11/18 01:53:00;;;;;;;14.17;7.87;;;;;;;;;;6198554;28;20537;-72
2022/11/18 01:56:04;;;;;;;13.85;7.38;;;;;;;;;;6197690;28;20041;-72
2022/11/18 01:59:06;;;;;;;15.27;7.70;;;;;;;;;;6197232;28;20030;-72
2022/11/18 02:02:09;;;;;;;13.88;7.57;;;;;;;;;;6180302;28;20489;-73
2022/11/18 02:05:10;;;;;;;14.25;7.50;;;;;;;;;;6198149;28;20125;-73
2022/11/18 02:08:10;;;;;;;17.77;8.93;;;;;;;;;;6198170;28;20010;-72
2022/11/18 02:14:34;;;;;;;18.80;7.60;;;;;;;;;;6197697;28;20775;-72
2022/11/18 02:17:41;;;;;;;14.40;7.93;;;;;;;;;;6199058;28;20077;-72
2022/11/18 02:20:43;;;;;;;14.25;7.53;;;;;;;;;;6197472;28;20060;-72
2022/11/18 02:24:02;;;;;;;12.32;7.18;;;;;;;;;;6199469;28;20394;-72
2022/11/18 02:27:14;;;;;;;14.60;8.55;;;;;;;;;;6181191;28;20050;-73
2022/11/18 02:30:15;;;;;;;12.43;6.95;;;;;;;;;;6197306;28;20023;-73
2022/11/18 02:33:36;;;;;;;12.97;7.10;;;;;;;;;;6199747;28;20041;-72
2022/11/18 02:36:39;;;;;;;12.00;6.95;;;;;;;;;;6179317;28;20053;-72
2022/11/18 02:39:44;;;;;;;14.10;7.55;;;;;;;;;;6198292;28;20022;-72
2022/11/18 02:42:48;;;;;;;17.23;9.07;;;;;;;;;;6197800;28;20025;-72
2022/11/18 02:45:49;;;;;;;13.60;6.97;;;;;;;;;;6198255;28;20602;-73
2022/11/18 02:48:50;;;;;;;;;;;;;;;;;;6200068;28;20022;-73
2022/11/18 02:51:50;;;;;;;12.88;6.72;;;;;;;;;;6198963;28;19906;-73
2022/11/18 02:54:51;;;;;;;12.50;6.57;;;;;;;;;;6197594;28;20026;-73
2022/11/18 02:57:51;;;;;;;12.07;5.53;;;;;;;;;;6197488;28;20026;-73
2022/11/18 03:00:52;;;;;;;12.37;6.83;;;;;;;;;;6199246;28;20026;-72
2022/11/18 03:03:52;;;;;;;13.88;7.93;;;;;;;;;;6198962;28;20087;-72
2022/11/18 03:07:10;;;;;;;15.07;6.87;;;;;;;;;;6180295;28;20046;-72
2022/11/18 03:10:11;;;;;;;16.20;7.97;;;;;;;;;;6196610;28;20025;-72
2022/11/18 03:13:15;;;;;;;12.33;7.27;;;;;;;;;;6196666;28;20537;-73
2022/11/18 03:16:19;;;;;;;15.70;8.38;;;;;;;;;;6197881;28;20022;-73
2022/11/18 03:19:25;;;;;;;14.40;7.68;;;;;;;;;;6197937;28;20026;-73
2022/11/18 03:22:27;;;;;;;16.02;8.52;;;;;;;;;;6197857;28;20026;-73
2022/11/18 03:25:31;;;;;;;13.75;7.82;;;;;;;;;;6197453;28;20029;-73
2022/11/18 03:28:41;;;;;;;15.30;7.72;;;;;;;;;;6196094;28;20010;-73
2022/11/18 03:31:44;;;;;;;16.08;8.60;;;;;;;;;;6197615;28;20018;-73
2022/11/18 03:34:49;;;;;;;19.88;8.88;;;;;;;;;;6196673;28;20389;-73
2022/11/18 03:37:52;;;;;;;13.75;7.57;;;;;;;;;;6179408;28;20113;-74
2022/11/18 03:40:54;;;;;;;17.85;9.05;;;;;;;;;;6197300;28;20092;-72
2022/11/18 03:43:54;;;;;;;;;;;;;;;;;;6179399;28;20650;-72
2022/11/18 03:47:18;;;;;;;13.80;7.07;;;;;;;;;;6197166;28;20266;-72
2022/11/18 03:50:25;;;;;;;16.25;7.97;;;;;;;;;;6185114;28;20038;-72
2022/11/18 03:53:26;;;;;;;16.15;7.57;;;;;;;;;;6192350;28;20018;-72
2022/11/18 03:56:32;;;;;;;16.90;7.93;;;;;;;;;;6193132;28;20894;-72
2022/11/18 03:59:54;;;;;;;17.88;8.70;;;;;;;;;;6195576;28;20019;-72
2022/11/18 04:02:54;;;;;;;13.57;7.70;;;;;;;;;;6196917;28;20222;-72
2022/11/18 04:06:02;;;;;;;14.93;7.87;;;;;;;;;;6196616;28;20053;-73
2022/11/18 04:09:04;;;;;;;16.38;9.65;;;;;;;;;;6196656;28;20390;-72
2022/11/18 04:12:07;;;;;;;16.83;9.10;;;;;;;;;;6191688;28;20019;-72
2022/11/18 04:15:08;;;;;;;18.42;8.85;;;;;;;;;;6196683;28;20961;-73
2022/11/18 04:18:09;;;;;;;16.50;7.70;;;;;;;;;;6195752;28;20022;-73
2022/11/18 04:21:09;;;;;;;16.07;8.07;;;;;;;;;;6196072;28;20026;-72
2022/11/18 04:24:09;;;;;;;19.55;9.45;;;;;;;;;;6196346;28;20033;-73
2022/11/18 04:27:10;;;;;;;17.20;9.37;;;;;;;;;;6196063;28;20505;-73
2022/11/18 04:30:10;;;;;;;18.27;10.03;;;;;;;;;;6196568;28;20506;-73
2022/11/18 04:33:10;;;;;;;19.33;9.93;;;;;;;;;;6195938;28;20068;-73
2022/11/18 04:36:10;;;;;;;17.93;9.60;;;;;;;;;;6196496;28;20445;-73
2022/11/18 04:39:11;;;;;;;18.63;10.25;;;;;;;;;;6192338;28;20023;-73
2022/11/18 04:42:11;;;;;;;20.20;10.07;;;;;;;;;;6178851;28;20054;-73
2022/11/18 04:45:11;;;;;;;22.27;11.37;;;;;;;;;;6195976;28;20018;-73
2022/11/18 04:48:11;;;;;;;21.83;10.90;;;;;;;;;;6196452;28;20022;-73
2022/11/18 04:51:12;;;;;;;21.63;11.13;;;;;;;;;;6195744;28;20079;-73
2022/11/18 04:54:12;;;;;;;23.17;12.27;;;;;;;;;;6196022;28;20011;-73
2022/11/18 04:57:13;;;;;;;18.70;9.65;;;;;;;;;;6195795;28;20022;-74
2022/11/18 05:00:13;;;;;;;25.47;11.67;;;;;;;;;;6179022;28;20046;-73
2022/11/18 05:03:13;;;;;;;24.37;12.67;;;;;;;;;;6195576;28;20186;-73
2022/11/18 05:06:14;;;;;;;23.17;11.57;;;;;;;;;;6194868;28;20558;-72
2022/11/18 05:09:14;;;;;;;23.05;11.57;;;;;;;;;;6194444;28;20057;-73
2022/11/18 05:15:33;;;;;;;21.58;11.57;;;;;;;;;;6195391;28;20030;-73
2022/11/18 05:18:34;;;;;;;24.45;12.52;;;;;;;;;;6195192;28;20504;-73
2022/11/18 05:21:34;;;;;;;20.87;11.30;;;;;;;;;;6195688;28;20022;-74
2022/11/18 05:24:34;;;;;;;22.70;12.00;;;;;;;;;;6178619;28;20029;-73
2022/11/18 05:27:34;;;;;;;18.80;11.07;;;;;;;;;;6195449;28;20018;-73
2022/11/18 05:30:35;;;;;;;20.30;10.90;;;;;;;;;;6195593;28;20025;-73
2022/11/18 05:33:35;;;;;;;19.88;10.63;;;;;;;;;;6195774;28;20093;-74
2022/11/18 05:36:35;;;;;;;24.00;12.23;;;;;;;;;;6195297;28;20489;-72
2022/11/18 05:39:35;;;;;;;20.13;10.87;;;;;;;;;;6196288;28;20029;-74
2022/11/18 05:45:54;;;;;;;26.10;14.15;;;;;;;;;;6194788;28;20486;-73
2022/11/18 05:48:55;;;;;;;30.83;13.33;;;;;;;;;;6176904;28;20065;-73
2022/11/18 05:51:55;;;;;;;26.43;14.13;;;;;;;;;;6176811;28;20022;-74
2022/11/18 05:54:55;;;;;;;25.10;13.80;;;;;;;;;;6189584;28;20022;-73
2022/11/18 05:57:55;;;;;;;25.20;12.90;;;;;;;;;;6178128;28;20360;-73
2022/11/18 06:00:58;;;;;;;25.45;13.57;;;;;;;;;;6177820;28;20018;-73
2022/11/18 06:03:59;;;;;;;25.48;14.77;;;;;;;;;;6167226;28;20026;-72
2022/11/18 06:07:03;;;;;;;26.10;12.40;;;;;;;;;;6194344;28;20787;-73
2022/11/18 06:10:04;;;;;;;25.48;12.30;;;;;;;;;;6194496;28;20019;-74
2022/11/18 06:13:06;;;;;;;30.93;14.17;;;;;;;;;;6194874;28;20046;-73
2022/11/18 06:16:06;;;;;;;;;;;;;;;;;;6194789;28;20224;-72
2022/11/18 06:19:06;;;;;;;24.35;13.07;;;;;;;;;;6197359;28;19909;-73
2022/11/18 06:22:08;;;;;;;25.30;12.60;;;;;;;;;;6181400;28;20026;-72
2022/11/18 06:25:08;;;;;;;25.42;13.70;;;;;;;;;;6197411;28;20022;-74
2022/11/18 06:28:09;;;;;;;27.65;13.07;;;;;;;;;;6197351;28;20093;-73
2022/11/18 06:31:09;;;;;;;29.23;14.20;;;;;;;;;;6195825;28;20026;-72
2022/11/18 06:34:10;;;;;;;34.03;14.90;;;;;;;;;;6198189;28;20045;-72
2022/11/18 06:37:13;;;;;;;25.70;12.73;;;;;;;;;;6197805;28;20476;-72
2022/11/18 06:40:13;;;;;;;29.35;16.55;;;;;;;;;;6193449;28;20026;-73
2022/11/18 06:49:51;;;;;;;30.60;15.10;;;;;;;;;;6194188;28;20022;-72
2022/11/18 06:52:51;;;;;;;28.53;11.90;;;;;;;;;;6193806;28;20493;-72
2022/11/18 06:55:52;;;;;;;24.17;11.23;;;;;;;;;;6192584;28;20018;-73
2022/11/18 06:58:56;;;;;;;26.42;13.48;;;;;;;;;;6196022;28;20053;-74
2022/11/18 07:01:56;;;;;;;19.60;10.38;;;;;;;;;;6195972;28;20113;-74
2022/11/18 07:04:57;;;;;;;21.17;11.03;;;;;;;;;;6194539;28;20475;-74
2022/11/18 07:07:57;;;;;;;28.73;14.18;;;;;;;;;;6195154;28;20097;-74
2022/11/18 07:10:57;;;;;;;30.17;12.85;;;;;;;;;;6195207;28;20017;-74
2022/11/18 07:13:57;;;;;;;27.83;11.68;;;;;;;;;;6194303;28;20434;-73
2022/11/18 07:16:57;;;;;;;26.67;12.87;;;;;;;;;;6194315;28;20077;-74
2022/11/18 07:19:57;;;;;;;22.70;11.33;;;;;;;;;;6194842;28;20117;-74
2022/11/18 07:22:58;;;;;;;33.23;15.07;;;;;;;;;;6194072;28;20390;-74
2022/11/18 07:25:58;;;;;;;28.35;12.73;;;;;;;;;;6195713;28;20030;-74
2022/11/18 07:28:58;;;;;;;27.37;14.10;;;;;;;;;;6173405;28;20033;-74
2022/11/18 07:31:58;;;;;;;28.30;13.20;;;;;;;;;;6193702;28;20129;-74
2022/11/18 07:34:58;;;;;;;30.55;13.73;;;;;;;;;;6193062;28;20030;-74
2022/11/18 07:37:59;;;;;;;32.80;14.38;;;;;;;;;;6193780;28;20034;-74
2022/11/18 07:41:05;;;;;;;26.07;12.77;;;;;;;;;;6179182;28;20705;-74
2022/11/18 07:44:06;;;;;;;29.17;12.90;;;;;;;;;;6196774;28;20023;-74
2022/11/18 07:47:06;;;;;;;24.30;13.00;;;;;;;;;;6178356;28;20084;-73
2022/11/18 07:50:06;;;;;;;24.52;11.93;;;;;;;;;;6196206;28;20160;-74
2022/11/18 07:53:07;;;;;;;27.07;13.93;;;;;;;;;;6196312;28;20022;-74
2022/11/18 07:56:07;;;;;;;28.85;15.52;;;;;;;;;;6199239;28;20030;-73
2022/11/18 07:59:07;;;;;;;24.10;12.80;;;;;;;;;;6194741;28;20033;-74
2022/11/18 08:02:10;;;;;;;25.30;12.97;;;;;;;;;;6177603;28;20019;-74
2022/11/18 08:05:11;;;;;;;23.48;12.95;;;;;;;;;;6191810;28;20137;-74
2022/11/18 08:08:11;;;;;;;23.63;12.60;;;;;;;;;;6193896;28;20080;-74
2022/11/18 08:11:12;;;;;;;23.00;12.60;;;;;;;;;;6191049;28;20018;-74
2022/11/18 08:14:13;;;;;;;24.92;12.10;;;;;;;;;;6194202;28;20054;-74
2022/11/18 08:17:13;;;;;;;23.83;13.33;;;;;;;;;;6194316;28;20028;-75
2022/11/18 08:20:13;;;;;;;25.20;14.00;;;;;;;;;;6194198;28;20095;-74
2022/11/18 08:23:14;;;;;;;25.77;13.87;;;;;;;;;;6194504;28;20382;-74
2022/11/18 08:26:14;;;;;;;22.97;13.80;;;;;;;;;;6176766;28;20457;-74
2022/11/18 08:29:14;;;;;;;24.87;13.40;;;;;;;;;;6194843;28;20045;-74
2022/11/18 08:32:15;;;;;;;25.05;13.00;;;;;;;;;;6194956;28;20029;-73
2022/11/18 08:35:15;;;;;;;26.60;12.75;;;;;;;;;;6194193;28;20577;-74
2022/11/18 08:38:15;;;;;;;28.13;12.83;;;;;;;;;;6193734;28;20030;-74
2022/11/18 08:41:17;;;;;;;27.00;13.27;;;;;;;;;;6191481;28;20034;-74
2022/11/18 08:44:18;;;;;;;23.00;11.88;;;;;;;;;;6192079;28;20519;-74
2022/11/18 08:47:18;;;;;;;30.43;13.03;;;;;;;;;;6190692;28;20026;-74
2022/11/18 08:50:18;;;;;;;27.17;13.10;;;;;;;;;;6192218;28;20014;-74
2022/11/18 08:53:18;;;;;;;22.14;10.14;;;;;;;;;;6176259;28;20065;-75
2022/11/18 08:56:20;;;;;;;27.20;13.55;;;;;;;;;;6192899;28;20471;-74
2022/11/18 08:59:20;;;;;;;24.70;12.80;;;;;;;;;;6194176;28;20081;-74
2022/11/18 09:02:21;;;;;;;28.93;14.83;;;;;;;;;;6195211;28;20030;-74
2022/11/18 09:05:22;;;;;;;33.70;18.58;;;;;;;;;;6195368;28;20064;-74
2022/11/18 09:08:25;;;;;;;39.95;18.65;;;;;;;;;;6194869;28;20019;-74
2022/11/18 09:11:26;;;;;;;35.90;17.85;;;;;;;;;;6176728;28;20093;-74
2022/11/18 09:14:26;;;;;;;40.03;18.97;;;;;;;;;;6192984;28;20018;-74
2022/11/18 09:17:26;;;;;;;35.15;18.27;;;;;;;;;;6193150;28;20437;-74
2022/11/18 09:20:26;;;;;;;44.70;18.50;;;;;;;;;;6195482;28;20037;-75
2022/11/18 09:23:27;;;;;;;32.70;15.52;;;;;;;;;;6191471;28;20022;-74
2022/11/18 09:26:27;;;;;;;27.37;14.90;;;;;;;;;;6191921;28;20018;-75
2022/11/18 09:29:27;;;;;;;34.42;16.65;;;;;;;;;;6188828;28;20470;-75
2022/11/18 09:32:27;;;;;;;29.85;14.88;;;;;;;;;;6193600;28;20026;-74
2022/11/18 09:35:27;;;;;;;26.27;12.70;;;;;;;;;;6175540;28;20068;-74
2022/11/18 09:38:28;;;;;;;37.20;18.20;;;;;;;;;;6194690;28;20026;-75
2022/11/18 09:41:31;;;;;;;30.47;18.13;;;;;;;;;;6195612;28;20026;-74
2022/11/18 09:44:40;;;;;;;34.75;18.90;;;;;;;;;;6176215;28;20056;-74
2022/11/18 09:47:40;;;;;;;35.45;17.23;;;;;;;;;;6194096;28;20029;-74
2022/11/18 09:50:40;;;;;;;39.70;19.60;;;;;;;;;;6195902;28;20367;-74
2022/11/18 09:53:43;;;;;;;35.97;18.37;;;;;;;;;;6198282;28;20109;-75
2022/11/18 09:56:43;;;;;;;38.40;18.90;;;;;;;;;;6199281;28;20114;-75
2022/11/18 09:59:43;;;;;;;33.10;17.50;;;;;;;;;;6198498;28;20022;-74
2022/11/18 10:02:51;;;;;;;41.60;22.63;;;;;;;;;;6198406;28;20470;-74
2022/11/18 10:05:54;;;;;;;35.97;17.75;;;;;;;;;;6181130;28;20046;-75
2022/11/18 10:08:54;;;;;;;39.75;19.83;;;;;;;;;;6198526;28;20308;-74
2022/11/18 10:12:06;;;;;;;36.20;18.95;;;;;;;;;;6179089;28;20077;-75
2022/11/18 10:15:06;;;;;;;38.78;19.45;;;;;;;;;;6196537;28;20033;-75
2022/11/18 10:18:36;;;;;;;30.80;18.40;;;;;;;;;;6197044;28;20030;-74
2022/11/18 10:21:42;;;;;;;29.30;17.85;;;;;;;;;;6180513;28;20556;-74
2022/11/18 10:24:44;;;;;;;33.45;16.70;;;;;;;;;;6196910;28;20037;-74
2022/11/18 10:27:46;;;;;;;37.25;19.55;;;;;;;;;;6196864;28;20389;-75
2022/11/18 10:30:46;;;;;;;35.08;19.25;;;;;;;;;;6199082;28;20033;-74
2022/11/18 10:33:46;;;;;;;38.23;20.90;;;;;;;;;;6197925;28;20022;-74
2022/11/18 10:37:02;;;;;;;38.57;19.20;;;;;;;;;;6181079;28;20074;-74
2022/11/18 10:40:04;;;;;;;41.22;21.45;;;;;;;;;;6194121;28;20034;-75
2022/11/18 10:43:04;;;;;;;39.40;20.67;;;;;;;;;;6196316;28;20102;-75
2022/11/18 10:46:14;;;;;;;34.60;19.90;;;;;;;;;;6178855;28;20030;-75
2022/11/18 10:49:16;;;;;;;35.42;19.13;;;;;;;;;;6193880;28;20033;-75
2022/11/18 10:52:16;;;;;;;38.85;20.23;;;;;;;;;;6196751;28;20057;-74
2022/11/18 10:55:16;;;;;;;35.17;19.20;;;;;;;;;;6195652;28;20032;-75
2022/11/18 10:58:24;;;;;;;32.20;19.17;;;;;;;;;;6195478;28;20022;-75
2022/11/18 11:01:25;;;;;;;36.33;16.55;;;;;;;;;;6196693;28;20382;-75
2022/11/18 11:04:26;;;;;;;39.03;18.63;;;;;;;;;;6176343;28;20030;-74
2022/11/18 11:07:28;;;;;;;35.30;19.10;;;;;;;;;;6195552;28;20550;-75
2022/11/18 11:10:28;;;;;;;41.53;20.00;;;;;;;;;;6176969;28;20022;-75
2022/11/18 11:13:29;;;;;;;36.73;19.43;;;;;;;;;;6195458;28;20022;-75
2022/11/18 11:16:30;;;;;;;34.55;17.23;;;;;;;;;;6194107;28;20037;-74
2022/11/18 11:19:35;;;;;;;33.83;18.20;;;;;;;;;;6177420;28;20030;-75
2022/11/18 11:22:36;;;;;;;39.85;21.83;;;;;;;;;;6197599;28;20035;-73
2022/11/18 11:25:36;;;;;;;34.42;17.20;;;;;;;;;;6199006;28;20018;-74
2022/11/18 11:28:36;;;;;;;39.10;20.67;;;;;;;;;;6197173;28;20447;-73
2022/11/18 11:31:36;;;;;;;33.27;17.63;;;;;;;;;;6196115;28;20084;-73
2022/11/18 11:34:55;;;;;;;32.25;17.80;;;;;;;;;;6196260;28;20390;-74
2022/11/18 11:38:00;;;;;;;35.38;20.02;;;;;;;;;;6178205;28;20025;-74
2022/11/18 11:41:05;;;;;;;36.63;19.83;;;;;;;;;;6196783;28;20463;-74
2022/11/18 11:44:08;;;;;;;34.47;20.23;;;;;;;;;;6195844;28;20069;-73
2022/11/18 11:50:53;;;;;;;41.58;19.88;;;;;;;;;;6197305;28;20038;-73
2022/11/18 11:54:11;;;;;;;43.05;19.30;;;;;;;;;;6196756;28;20011;-73
2022/11/18 11:57:22;;;;;;;38.70;19.92;;;;;;;;;;6190768;28;20037;-74
2022/11/18 12:00:22;;;;;;;44.75;22.63;;;;;;;;;;6194971;28;20031;-74
2022/11/18 12:03:38;;;;;;;34.03;19.00;;;;;;;;;;6178309;28;20056;-73
2022/11/18 12:06:41;;;;;;;44.55;20.45;;;;;;;;;;6195227;28;20046;-74
2022/11/18 12:09:50;;;;;;;36.55;18.20;;;;;;;;;;6194294;28;20054;-74
2022/11/18 12:12:53;;;;;;;33.70;16.63;;;;;;;;;;6195298;28;20105;-73
2022/11/18 12:16:12;;;;;;;33.72;17.40;;;;;;;;;;6194611;28;20572;-74
2022/11/18 12:19:14;;;;;;;28.85;14.93;;;;;;;;;;6193996;28;20398;-73
2022/11/18 12:22:14;;;;;;;28.63;15.23;;;;;;;;;;6195226;28;20019;-73
2022/11/18 12:25:33;;;;;;;31.93;15.10;;;;;;;;;;6194093;28;20025;-73
2022/11/18 12:28:40;;;;;;;27.48;15.75;;;;;;;;;;6192705;28;20024;-74
2022/11/18 12:31:40;;;;;;;31.90;16.60;;;;;;;;;;6190335;28;20026;-74
2022/11/18 12:34:42;;;;;;;37.30;18.57;;;;;;;;;;6192350;28;20029;-73
2022/11/18 12:37:52;;;;;;;37.53;17.45;;;;;;;;;;6193829;28;20093;-73
2022/11/18 12:40:52;;;;;;;30.00;15.10;;;;;;;;;;6194544;28;20708;-74
2022/11/18 12:43:52;;;;;;;32.73;17.27;;;;;;;;;;6191648;28;20022;-73
2022/11/18 12:46:54;;;;;;;34.13;18.55;;;;;;;;;;6191127;28;20219;-74
2022/11/18 12:50:13;;;;;;;37.78;19.35;;;;;;;;;;6191000;28;20018;-74
2022/11/18 12:53:28;;;;;;;37.03;19.67;;;;;;;;;;6190739;28;20022;-74
2022/11/18 12:56:33;;;;;;;32.80;17.98;;;;;;;;;;6192107;28;20430;-74
2022/11/18 12:59:35;;;;;;;30.70;17.63;;;;;;;;;;6191791;28;20028;-75
2022/11/18 13:02:35;;;;;;;34.97;16.85;;;;;;;;;;6174955;28;20022;-75
2022/11/18 13:05:35;;;;;;;38.40;19.70;;;;;;;;;;6191049;28;20066;-76
2022/11/18 13:08:35;;;;;;;38.05;20.05;;;;;;;;;;6192110;28;20025;-75
2022/11/18 13:11:43;;;;;;;37.97;19.10;;;;;;;;;;6191585;28;20094;-76
2022/11/18 13:18:21;;;;;;;31.08;16.08;;;;;;;;;;6191705;28;20438;-76
2022/11/18 13:24:43;;;;;;;34.08;16.65;;;;;;;;;;6193549;28;20026;-76
2022/11/18 13:27:54;;;;;;;31.13;17.67;;;;;;;;;;6198991;28;20022;-76
2022/11/18 13:31:05;;;;;;;35.83;19.70;;;;;;;;;;6182664;28;20026;-76
2022/11/18 13:34:17;;;;;;;32.25;15.75;;;;;;;;;;6200173;28;20378;-77
2022/11/18 13:37:18;;;;;;;31.17;18.13;;;;;;;;;;6192505;28;20018;-76
2022/11/18 13:40:19;;;;;;;;;;;;;;;;;;6178505;28;20049;-75
2022/11/18 13:43:24;;;;;;;36.03;20.50;;;;;;;;;;6200840;28;19906;-76
2022/11/18 13:46:25;;;;;;;30.95;17.30;;;;;;;;;;6198828;28;20027;-77
2022/11/18 13:49:52;;;;;;;35.73;19.37;;;;;;;;;;6200462;28;20137;-76
2022/11/18 13:52:58;;;;;;;35.97;18.90;;;;;;;;;;6191618;28;20045;-77
2022/11/18 13:56:00;;;;;;;36.67;19.25;;;;;;;;;;6198294;28;20050;-78
2022/11/18 13:59:01;;;;;;;35.03;19.27;;;;;;;;;;6199341;28;20022;-77
2022/11/18 14:02:01;;;;;;;35.20;18.97;;;;;;;;;;6199956;28;20019;-77
2022/11/18 14:05:01;;;;;;;36.08;18.27;;;;;;;;;;6199297;28;20021;-77
2022/11/18 14:08:04;;;;;;;39.90;21.83;;;;;;;;;;6181894;28;20104;-77
2022/11/18 14:11:05;;;;;;;42.15;19.13;;;;;;;;;;6180747;28;20059;-78
2022/11/18 14:14:07;;;;;;;38.85;21.73;;;;;;;;;;6180992;28;20398;-77
2022/11/18 14:17:20;;;;;;;39.13;21.67;;;;;;;;;;6196614;28;20344;-77
2022/11/18 14:20:21;;;;;;;42.50;20.13;;;;;;;;;;6180629;28;20028;-77
2022/11/18 14:23:26;;;;;;;38.10;20.27;;;;;;;;;;6200048;28;20018;-76
2022/11/18 14:26:27;;;;;;;40.78;18.15;;;;;;;;;;6201600;28;20011;-77
2022/11/18 14:29:27;;;;;;;38.13;19.10;;;;;;;;;;6199244;28;20022;-78
2022/11/18 14:32:27;;;;;;;35.17;17.95;;;;;;;;;;6181001;28;20121;-78
2022/11/18 14:35:27;;;;;;;35.13;18.13;;;;;;;;;;6181319;28;20018;-77
2022/11/18 14:38:46;;;;;;;48.20;18.47;;;;;;;;;;6197537;28;20026;-77
2022/11/18 14:41:47;;;;;;;34.13;18.20;;;;;;;;;;6182894;28;20014;-77
2022/11/18 14:44:47;;;;;;;31.17;15.73;;;;;;;;;;6181272;28;20383;-77
2022/11/18 14:47:47;;;;;;;35.07;17.93;;;;;;;;;;6199259;28;20073;-78
2022/11/18 14:50:47;;;;;;;25.13;14.00;;;;;;;;;;6182074;28;20022;-77
2022/11/18 14:53:47;;;;;;;31.57;15.53;;;;;;;;;;6198606;28;20489;-78
2022/11/18 14:56:48;;;;;;;36.20;18.58;;;;;;;;;;6199210;28;20443;-77
2022/11/18 14:59:48;;;;;;;35.27;16.90;;;;;;;;;;6197882;28;20037;-78
2022/11/18 15:02:49;;;;;;;24.50;12.23;;;;;;;;;;6198937;28;20030;-78
2022/11/18 15:05:49;;;;;;;32.03;14.80;;;;;;;;;;6180690;28;20045;-79
2022/11/18 15:08:51;;;;;;;34.17;15.77;;;;;;;;;;6198040;28;20099;-77
2022/11/18 15:11:51;;;;;;;;;;;;;;;;;;6199252;28;20022;-79
2022/11/18 15:14:51;;;;;;;36.58;17.40;;;;;;;;;;6197513;28;19909;-79
2022/11/18 15:17:51;;;;;;;34.65;17.05;;;;;;;;;;6197302;28;20074;-78
2022/11/18 15:20:51;;;;;;;27.60;14.20;;;;;;;;;;6196034;28;20026;-78
2022/11/18 15:23:52;;;;;;;26.42;13.20;;;;;;;;;;6197764;28;20034;-80
2022/11/18 15:26:52;;;;;;;29.97;14.90;;;;;;;;;;6183653;28;20494;-79
2022/11/18 15:29:52;;;;;;;34.50;16.17;;;;;;;;;;6199328;28;20042;-79
2022/11/18 15:32:53;;;;;;;38.57;16.27;;;;;;;;;;6201873;28;20046;-79
2022/11/18 15:35:53;;;;;;;40.17;19.37;;;;;;;;;;6187387;28;20045;-79
2022/11/18 15:38:53;;;;;;;38.57;19.03;;;;;;;;;;6201921;28;20057;-80
2022/11/18 15:41:53;;;;;;;33.23;16.23;;;;;;;;;;6200028;28;20050;-80
2022/11/18 15:44:54;;;;;;;34.13;17.67;;;;;;;;;;6200388;28;20022;-79
2022/11/18 15:47:54;;;;;;;34.80;17.13;;;;;;;;;;6200984;28;20305;-80
2022/11/18 15:50:54;;;;;;;35.67;18.13;;;;;;;;;;6200842;28;20029;-79
2022/11/18 15:53:57;;;;;;;40.37;19.17;;;;;;;;;;6183986;28;20014;-79
2022/11/18 15:56:57;;;;;;;42.55;21.77;;;;;;;;;;6208225;28;20022;-79
2022/11/18 15:59:57;;;;;;;38.30;18.30;;;;;;;;;;6192107;28;20057;-79
2022/11/18 16:02:57;;;;;;;45.95;22.35;;;;;;;;;;6204807;28;20106;-80
2022/11/18 16:05:57;;;;;;;35.75;17.42;;;;;;;;;;6182383;28;20573;-80
2022/11/18 16:08:58;;;;;;;35.10;16.83;;;;;;;;;;6179508;28;20097;-77
2022/11/18 16:16:02;;;;;;;36.90;15.50;;;;;;;;;;6195586;28;20452;-77
2022/11/18 16:18:37;;;;;;;35.38;19.00;;;;;;;;;;6189334;28;20049;-78
2022/11/18 16:21:39;;;;;;;33.50;16.57;;;;;;;;;;6196360;28;20506;-77
2022/11/18 16:24:39;;;;;;;41.22;18.70;;;;;;;;;;6194679;28;20446;-77
2022/11/18 16:27:39;;;;;;;40.00;20.92;;;;;;;;;;6194493;28;20085;-77
2022/11/18 16:33:58;;;;;;;52.17;22.73;;;;;;;;;;6194148;28;20113;-77
2022/11/18 16:37:00;;;;;;;47.00;20.50;;;;;;;;;;6195007;28;20037;-77
2022/11/18 16:40:00;;;;;;;48.05;24.25;;;;;;;;;;6177656;28;20482;-76
2022/11/18 16:43:00;;;;;;;42.30;20.57;;;;;;;;;;6178158;28;20113;-76
2022/11/18 16:46:00;;;;;;;36.50;18.10;;;;;;;;;;6193252;28;20026;-76
2022/11/18 16:49:01;;;;;;;38.35;20.02;;;;;;;;;;6177683;28;20018;-76
2022/11/18 16:52:01;;;;;;;41.57;21.70;;;;;;;;;;6195474;28;20462;-77
2022/11/18 16:55:01;;;;;;;44.13;21.33;;;;;;;;;;6194762;28;20014;-77
2022/11/18 16:58:01;;;;;;;36.73;19.37;;;;;;;;;;6194322;28;20026;-77
2022/11/18 17:01:08;;;;;;;37.57;18.53;;;;;;;;;;6192799;28;20025;-77
2022/11/18 17:04:14;;;;;;;56.10;24.90;;;;;;;;;;6196568;28;20708;-77
2022/11/18 17:07:14;;;;;;;53.65;22.20;;;;;;;;;;6179386;28;20050;-77
2022/11/18 17:10:20;;;;;;;45.47;22.60;;;;;;;;;;6179094;28;20041;-77
2022/11/18 17:13:26;;;;;;;48.65;22.35;;;;;;;;;;6196440;28;20022;-77
2022/11/18 17:16:27;;;;;;;46.38;22.58;;;;;;;;;;6196859;28;20150;-77
2022/11/18 17:19:27;;;;;;;39.07;18.90;;;;;;;;;;6195987;28;20118;-77
2022/11/18 17:22:27;;;;;;;46.70;21.45;;;;;;;;;;6197001;28;20515;-77
2022/11/18 17:25:27;;;;;;;45.73;23.67;;;;;;;;;;6196743;28;20400;-77
2022/11/18 17:28:28;;;;;;;46.63;23.58;;;;;;;;;;6196448;28;20009;-77
2022/11/18 17:31:29;;;;;;;51.13;22.77;;;;;;;;;;6196963;28;20406;-77
2022/11/18 17:34:30;;;;;;;38.83;21.70;;;;;;;;;;6177167;28;20019;-78
2022/11/18 17:37:30;;;;;;;43.15;21.83;;;;;;;;;;6194825;28;20105;-77
2022/11/18 17:40:31;;;;;;;41.10;19.87;;;;;;;;;;6194040;28;20030;-77
2022/11/18 17:43:31;;;;;;;37.65;19.02;;;;;;;;;;6194808;28;20141;-77
2022/11/18 17:46:32;;;;;;;33.17;16.77;;;;;;;;;;6191696;28;20031;-77
2022/11/18 17:49:32;;;;;;;40.50;20.17;;;;;;;;;;6189576;28;20022;-77
2022/11/18 17:52:32;;;;;;;38.17;19.33;;;;;;;;;;6191888;28;20021;-78
2022/11/18 17:55:32;;;;;;;33.60;16.77;;;;;;;;;;6194717;28;20021;-78
2022/11/18 17:58:32;;;;;;;42.30;21.93;;;;;;;;;;6192037;28;20038;-78
2022/11/18 18:01:33;;;;;;;33.22;16.90;;;;;;;;;;6177351;28;20034;-77
2022/11/18 18:04:33;;;;;;;39.67;19.63;;;;;;;;;;6195446;28;20134;-78
2022/11/18 18:07:33;;;;;;;36.50;18.80;;;;;;;;;;6196261;28;20093;-78
2022/11/18 18:10:36;;;;;;;45.27;21.90;;;;;;;;;;6195581;28;20097;-78
2022/11/18 18:16:56;;;;;;;37.58;17.83;;;;;;;;;;6200833;28;20081;-79
2022/11/18 18:19:56;;;;;;;30.47;15.10;;;;;;;;;;6199843;28;20036;-78
2022/11/18 18:22:56;;;;;;;31.43;15.83;;;;;;;;;;6197927;28;20030;-79
2022/11/18 18:26:00;;;;;;;25.60;13.50;;;;;;;;;;6199272;28;20033;-78